sensor_id;sensor_type;location;lat;lon;timestamp;pressure;altitude;pressure_sealevel;temperature;humidity
30338;BME280;17143;51.888;5.408;2022-10-03T00:09:54;102385.41;;;11.41;97.58
30338;BME280;17143;51.888;5.408;2022-10-03T00:25:05;102396.53;;;11.27;97.77
30338;BME280;17143;51.888;5.408;2022-10-03T00:40:35;102403.97;;;11.11;97.68
30338;BME280;17143;51.888;5.408;2022-10-03T00:55:59;102411.41;;;10.95;97.74
30338;BME280;17143;51.888;5.408;2022-10-03T01:11:11;102424.03;;;10.79;98.19
30338;BME280;17143;51.888;5.408;2022-10-03T01:26:41;102448.91;;;10.64;98.48
30338;BME280;17143;51.888;5.408;2022-10-03T01:41:49;102450.50;;;10.52;98.69
30338;BME280;17143;51.888;5.408;2022-10-03T01:57:00;102457.34;;;10.39;98.82
30338;BME280;17143;51.888;5.408;2022-10-03T02:12:09;102459.75;;;10.26;99.43
30338;BME280;17143;51.888;5.408;2022-10-03T02:43:17;102462.94;;;10.02;99.84
30338;BME280;17143;51.888;5.408;2022-10-03T02:58:47;102463.75;;;9.91;99.76
30338;BME280;17143;51.888;5.408;2022-10-03T03:29:54;102485.53;;;9.71;100.00
30338;BME280;17143;51.888;5.408;2022-10-03T03:45:07;102482.91;;;9.61;100.00
30338;BME280;17143;51.888;5.408;2022-10-03T04:00:17;102480.97;;;9.49;100.00
30338;BME280;17143;51.888;5.408;2022-10-03T04:15:33;102482.56;;;9.37;100.00
30338;BME280;17143;51.888;5.408;2022-10-03T04:30:48;102488.00;;;9.30;100.00
30338;BME280;17143;51.888;5.408;2022-10-03T04:46:03;102499.19;;;9.18;100.00
30338;BME280;17143;51.888;5.408;2022-10-03T05:01:15;102517.09;;;9.05;100.00
30338;BME280;17143;51.888;5.408;2022-10-03T05:16:29;102513.34;;;9.02;100.00
30338;BME280;17143;51.888;5.408;2022-10-03T05:31:44;102522.81;;;8.91;100.00
30338;BME280;17143;51.888;5.408;2022-10-03T05:47:06;102532.81;;;8.87;100.00
30338;BME280;17143;51.888;5.408;2022-10-03T06:02:58;102535.00;;;8.92;100.00
30338;BME280;17143;51.888;5.408;2022-10-03T06:18:35;102541.81;;;9.10;100.00
30338;BME280;17143;51.888;5.408;2022-10-03T06:34:01;102552.78;;;9.57;100.00
30338;BME280;17143;51.888;5.408;2022-10-03T06:49:41;102553.75;;;15.55;92.34
30338;BME280;17143;51.888;5.408;2022-10-03T07:20:52;102555.66;;;20.03;76.27
30338;BME280;17143;51.888;5.408;2022-10-03T07:51:39;102603.44;;;18.08;78.92
30338;BME280;17143;51.888;5.408;2022-10-03T08:06:51;102595.56;;;17.59;81.47
30338;BME280;17143;51.888;5.408;2022-10-03T08:22:04;102587.72;;;17.29;84.43
30338;BME280;17143;51.888;5.408;2022-10-03T08:37:28;102600.69;;;21.31;73.68
30338;BME280;17143;51.888;5.408;2022-10-03T08:52:50;102616.56;;;20.24;74.77
30338;BME280;17143;51.888;5.408;2022-10-03T09:39:36;102593.56;;;17.55;86.94
30338;BME280;17143;51.888;5.408;2022-10-03T09:55:23;102597.81;;;18.02;86.99
30338;BME280;17143;51.888;5.408;2022-10-03T10:10:56;102582.13;;;18.39;85.58
30338;BME280;17143;51.888;5.408;2022-10-03T10:42:18;102586.28;;;19.22;80.03
30338;BME280;17143;51.888;5.408;2022-10-03T10:58:04;102587.66;;;19.33;78.24
30338;BME280;17143;51.888;5.408;2022-10-03T11:13:55;102580.63;;;19.51;75.66
30338;BME280;17143;51.888;5.408;2022-10-03T11:29:20;102582.91;;;19.63;74.75
30338;BME280;17143;51.888;5.408;2022-10-03T11:44:36;102574.53;;;19.92;73.08
30338;BME280;17143;51.888;5.408;2022-10-03T11:59:58;102574.41;;;20.10;72.18
30338;BME280;17143;51.888;5.408;2022-10-03T12:15:23;102559.69;;;19.95;73.12
30338;BME280;17143;51.888;5.408;2022-10-03T12:30:36;102549.91;;;20.14;73.27
30338;BME280;17143;51.888;5.408;2022-10-03T12:45:46;102543.06;;;20.39;70.58
30338;BME280;17143;51.888;5.408;2022-10-03T13:00:54;102534.13;;;20.36;70.53
30338;BME280;17143;51.888;5.408;2022-10-03T13:16:16;102525.91;;;20.30;69.70
30338;BME280;17143;51.888;5.408;2022-10-03T13:31:21;102518.78;;;20.49;70.61
30338;BME280;17143;51.888;5.408;2022-10-03T13:46:30;102514.13;;;20.02;72.55
30338;BME280;17143;51.888;5.408;2022-10-03T14:01:42;102497.75;;;19.90;73.58
30338;BME280;17143;51.888;5.408;2022-10-03T14:16:54;102502.91;;;19.87;73.26
30338;BME280;17143;51.888;5.408;2022-10-03T14:32:02;102485.69;;;19.57;73.24
30338;BME280;17143;51.888;5.408;2022-10-03T14:47:10;102484.47;;;19.30;74.87
30338;BME280;17143;51.888;5.408;2022-10-03T15:02:25;102469.13;;;19.23;76.74
30338;BME280;17143;51.888;5.408;2022-10-03T15:17:32;102454.38;;;19.28;78.28
30338;BME280;17143;51.888;5.408;2022-10-03T15:32:38;102435.06;;;19.10;78.50
30338;BME280;17143;51.888;5.408;2022-10-03T15:47:43;102411.03;;;18.84;78.59
30338;BME280;17143;51.888;5.408;2022-10-03T16:02:50;102418.97;;;18.84;79.03
30338;BME280;17143;51.888;5.408;2022-10-03T16:17:58;102399.22;;;18.76;79.11
30338;BME280;17143;51.888;5.408;2022-10-03T16:33:12;102379.19;;;18.62;80.09
30338;BME280;17143;51.888;5.408;2022-10-03T16:48:19;102396.84;;;18.46;80.85
30338;BME280;17143;51.888;5.408;2022-10-03T17:03:23;102378.28;;;18.25;82.53
30338;BME280;17143;51.888;5.408;2022-10-03T17:18:29;102372.66;;;18.00;84.05
30338;BME280;17143;51.888;5.408;2022-10-03T17:33:40;102367.09;;;17.76;85.46
30338;BME280;17143;51.888;5.408;2022-10-03T17:48:48;102354.22;;;17.48;86.13
30338;BME280;17143;51.888;5.408;2022-10-03T18:03:55;102364.09;;;17.19;87.44
30338;BME280;17143;51.888;5.408;2022-10-03T18:19:18;102356.53;;;16.91;88.73
30338;BME280;17143;51.888;5.408;2022-10-03T18:34:27;102354.31;;;16.66;89.59
30338;BME280;17143;51.888;5.408;2022-10-03T18:49:33;102350.47;;;16.45;90.41
30338;BME280;17143;51.888;5.408;2022-10-03T19:04:39;102335.75;;;16.16;91.27
30338;BME280;17143;51.888;5.408;2022-10-03T19:19:49;102314.19;;;15.91;92.25
30338;BME280;17143;51.888;5.408;2022-10-03T19:34:52;102303.31;;;15.85;93.08
30338;BME280;17143;51.888;5.408;2022-10-03T19:50:03;102313.22;;;15.74;94.29
30338;BME280;17143;51.888;5.408;2022-10-03T20:05:08;102308.53;;;15.69;95.42
30338;BME280;17143;51.888;5.408;2022-10-03T20:20:21;102309.00;;;15.62;95.60
30338;BME280;17143;51.888;5.408;2022-10-03T20:35:27;102309.56;;;15.56;95.66
30338;BME280;17143;51.888;5.408;2022-10-03T20:50:33;102311.75;;;15.49;95.97
30338;BME280;17143;51.888;5.408;2022-10-03T21:05:38;102310.97;;;15.37;96.69
30338;BME280;17143;51.888;5.408;2022-10-03T21:20:44;102312.91;;;15.24;97.33
30338;BME280;17143;51.888;5.408;2022-10-03T21:35:48;102300.13;;;15.16;97.25
30338;BME280;17143;51.888;5.408;2022-10-03T21:50:52;102284.22;;;14.98;96.98
30338;BME280;17143;51.888;5.408;2022-10-03T22:06:03;102261.75;;;14.74;97.56
30338;BME280;17143;51.888;5.408;2022-10-03T22:21:13;102247.28;;;14.66;98.20
30338;BME280;17143;51.888;5.408;2022-10-03T22:36:19;102222.66;;;14.64;98.72
30338;BME280;17143;51.888;5.408;2022-10-03T22:51:21;102208.38;;;14.59;98.71
30338;BME280;17143;51.888;5.408;2022-10-03T23:06:38;102188.84;;;14.54;99.59
30338;BME280;17143;51.888;5.408;2022-10-03T23:21:45;102208.75;;;14.50;99.52
30338;BME280;17143;51.888;5.408;2022-10-03T23:37:00;102207.66;;;14.47;99.37
30338;BME280;17143;51.888;5.408;2022-10-03T23:52:03;102198.78;;;14.45;99.50
